Terminal Aerodrome Forecast
Issued by NWS

Home | Current Version | Previous Version | Text Only | Print | Product List | Glossary On
Versions: 1 2 3 4 5 6 7 8 9 10 11 12 13 14 15 16 17 18 19 20 21
674
FTAK31 PAJN 262324
TAFAPG
TAF
PAPG 262324Z 2700/2724 06006KT P6SM FEW016 BKN060 BKN080
     FM270300 VRB04KT P6SM SCT025 BKN050 BKN100
     FM270900 06003KT 3SM BR FEW003 SCT070
     FM271300 06003KT 1SM BR BKN003
     FM271800 05006KT P6SM SCT070
      AMD LTD TO CLD VIS AND WIND 2706/2715=

USA.gov is the U.S. government's official web portal to all federal, state and local government web resources and services.